Bethune, Colorado
Current Conditions -  °F | °C
As of 11:53 AM on Friday 24 Oct 2014 (Local Time) from KITR Reporting Station
Clear Clear  
Wind Chill: 28°   Ceiling: Unl
Heat Index: 28°   Visibility: 10mi
Dew Point: -4°   Wind: 5mph
Humidity: 12%   Direction: NA
Pressure: 30.13"   Gusts: NA
Location:  39.3°N, 102.42°W
Report Text: KITR 241753Z AUTO VRB04KT 10SM CLR 28/M04 A3013 RMK AO2 SLP154 T02831044 10289 20078 50003
Loading
Personal Weather Stations






























Interactive Weather Map
Tropical Storm Tracking
New forecast layout! Learn more

10-Day Weather Forecast

Advertisements
Track Severe Weather on mobile